sensor_id;sensor_type;location;lat;lon;timestamp;temperature;humidity
5492;DHT22;2768;53.540;10.224;2022-09-09T00:04:34;14.60;1.00
5492;DHT22;2768;53.540;10.224;2022-09-09T00:10:30;14.50;1.00
5492;DHT22;2768;53.540;10.224;2022-09-09T00:16:28;14.40;1.00
5492;DHT22;2768;53.540;10.224;2022-09-09T00:22:28;14.50;8.60
5492;DHT22;2768;53.540;10.224;2022-09-09T00:28:25;14.50;49.90
5492;DHT22;2768;53.540;10.224;2022-09-09T00:34:22;14.50;64.20
5492;DHT22;2768;53.540;10.224;2022-09-09T00:40:26;14.50;76.10
5492;DHT22;2768;53.540;10.224;2022-09-09T00:46:45;14.60;90.10
5492;DHT22;2768;53.540;10.224;2022-09-09T00:52:48;14.80;91.60
5492;DHT22;2768;53.540;10.224;2022-09-09T00:58:52;14.70;84.70
5492;DHT22;2768;53.540;10.224;2022-09-09T01:04:48;14.80;85.90
5492;DHT22;2768;53.540;10.224;2022-09-09T01:10:47;14.90;85.90
5492;DHT22;2768;53.540;10.224;2022-09-09T01:16:45;14.90;69.70
5492;DHT22;2768;53.540;10.224;2022-09-09T01:22:47;15.10;51.50
5492;DHT22;2768;53.540;10.224;2022-09-09T01:28:46;15.10;11.70
5492;DHT22;2768;53.540;10.224;2022-09-09T01:34:42;14.80;2.30
5492;DHT22;2768;53.540;10.224;2022-09-09T01:40:35;14.80;18.80
5492;DHT22;2768;53.540;10.224;2022-09-09T01:46:30;14.80;20.90
5492;DHT22;2768;53.540;10.224;2022-09-09T01:52:26;14.90;24.50
5492;DHT22;2768;53.540;10.224;2022-09-09T01:58:31;14.80;22.80
5492;DHT22;2768;53.540;10.224;2022-09-09T02:04:36;14.70;23.80
5492;DHT22;2768;53.540;10.224;2022-09-09T02:10:40;14.60;28.00
5492;DHT22;2768;53.540;10.224;2022-09-09T02:16:44;14.60;33.80
5492;DHT22;2768;53.540;10.224;2022-09-09T02:22:44;14.60;43.20
5492;DHT22;2768;53.540;10.224;2022-09-09T02:28:40;14.60;47.20
5492;DHT22;2768;53.540;10.224;2022-09-09T02:34:36;14.40;46.90
5492;DHT22;2768;53.540;10.224;2022-09-09T02:40:33;14.30;54.40
5492;DHT22;2768;53.540;10.224;2022-09-09T02:46:50;14.60;76.10
5492;DHT22;2768;53.540;10.224;2022-09-09T02:52:59;14.40;79.30
5492;DHT22;2768;53.540;10.224;2022-09-09T02:58:56;14.50;82.10
5492;DHT22;2768;53.540;10.224;2022-09-09T03:04:50;14.70;61.80
5492;DHT22;2768;53.540;10.224;2022-09-09T03:10:44;14.50;40.70
5492;DHT22;2768;53.540;10.224;2022-09-09T03:16:40;14.50;44.80
5492;DHT22;2768;53.540;10.224;2022-09-09T03:22:35;14.40;39.90
5492;DHT22;2768;53.540;10.224;2022-09-09T03:28:29;14.30;29.30
5492;DHT22;2768;53.540;10.224;2022-09-09T03:34:27;14.40;38.90
5492;DHT22;2768;53.540;10.224;2022-09-09T03:40:22;14.30;37.80
5492;DHT22;2768;53.540;10.224;2022-09-09T03:46:16;14.50;37.50
5492;DHT22;2768;53.540;10.224;2022-09-09T03:52:11;14.50;25.10
5492;DHT22;2768;53.540;10.224;2022-09-09T03:58:04;14.50;14.20
5492;DHT22;2768;53.540;10.224;2022-09-09T04:03:58;14.40;1.00
5492;DHT22;2768;53.540;10.224;2022-09-09T04:09:52;14.30;1.00
5492;DHT22;2768;53.540;10.224;2022-09-09T04:15:51;14.30;1.00
5492;DHT22;2768;53.540;10.224;2022-09-09T04:21:44;14.40;1.00
5492;DHT22;2768;53.540;10.224;2022-09-09T04:27:39;14.20;1.00
5492;DHT22;2768;53.540;10.224;2022-09-09T04:33:32;14.30;1.00
5492;DHT22;2768;53.540;10.224;2022-09-09T04:39:31;14.10;1.00
5492;DHT22;2768;53.540;10.224;2022-09-09T04:45:26;14.20;1.00
5492;DHT22;2768;53.540;10.224;2022-09-09T04:51:20;14.20;1.00
5492;DHT22;2768;53.540;10.224;2022-09-09T04:57:15;14.20;1.00
5492;DHT22;2768;53.540;10.224;2022-09-09T05:03:12;14.30;1.00
5492;DHT22;2768;53.540;10.224;2022-09-09T05:09:06;14.40;1.00
5492;DHT22;2768;53.540;10.224;2022-09-09T05:15:00;14.30;1.00
5492;DHT22;2768;53.540;10.224;2022-09-09T05:21:00;14.40;1.00
5492;DHT22;2768;53.540;10.224;2022-09-09T05:26:54;14.30;1.00
5492;DHT22;2768;53.540;10.224;2022-09-09T05:32:50;14.60;1.00
5492;DHT22;2768;53.540;10.224;2022-09-09T05:38:45;14.40;1.00
5492;DHT22;2768;53.540;10.224;2022-09-09T05:44:38;14.50;1.00
5492;DHT22;2768;53.540;10.224;2022-09-09T05:50:34;14.50;1.00
5492;DHT22;2768;53.540;10.224;2022-09-09T05:56:29;14.60;1.00
5492;DHT22;2768;53.540;10.224;2022-09-09T06:02:25;14.30;1.00
5492;DHT22;2768;53.540;10.224;2022-09-09T06:08:19;14.30;1.00
5492;DHT22;2768;53.540;10.224;2022-09-09T06:14:14;14.30;1.00
5492;DHT22;2768;53.540;10.224;2022-09-09T06:20:10;14.30;1.00
5492;DHT22;2768;53.540;10.224;2022-09-09T06:26:06;14.40;1.00
5492;DHT22;2768;53.540;10.224;2022-09-09T06:32:01;14.50;1.00
5492;DHT22;2768;53.540;10.224;2022-09-09T06:37:55;14.50;1.00
5492;DHT22;2768;53.540;10.224;2022-09-09T06:43:51;14.60;1.00
5492;DHT22;2768;53.540;10.224;2022-09-09T06:49:49;14.70;1.00
5492;DHT22;2768;53.540;10.224;2022-09-09T06:55:43;14.80;1.00
5492;DHT22;2768;53.540;10.224;2022-09-09T07:01:39;14.70;1.00
5492;DHT22;2768;53.540;10.224;2022-09-09T07:07:37;14.70;1.00
5492;DHT22;2768;53.540;10.224;2022-09-09T07:13:32;14.70;1.00
5492;DHT22;2768;53.540;10.224;2022-09-09T07:19:26;15.00;1.00
5492;DHT22;2768;53.540;10.224;2022-09-09T07:25:21;15.00;1.00
5492;DHT22;2768;53.540;10.224;2022-09-09T07:31:16;15.30;1.00
5492;DHT22;2768;53.540;10.224;2022-09-09T07:37:10;15.60;1.00
5492;DHT22;2768;53.540;10.224;2022-09-09T07:43:09;15.50;1.00
5492;DHT22;2768;53.540;10.224;2022-09-09T07:49:09;15.50;1.00
5492;DHT22;2768;53.540;10.224;2022-09-09T07:55:03;15.70;1.00
5492;DHT22;2768;53.540;10.224;2022-09-09T08:00:59;15.70;1.00
5492;DHT22;2768;53.540;10.224;2022-09-09T08:06:55;15.80;1.00
5492;DHT22;2768;53.540;10.224;2022-09-09T08:12:50;16.00;1.00
5492;DHT22;2768;53.540;10.224;2022-09-09T08:19:06;16.20;1.00
5492;DHT22;2768;53.540;10.224;2022-09-09T08:24:59;16.20;1.00
5492;DHT22;2768;53.540;10.224;2022-09-09T08:30:56;16.20;1.00
5492;DHT22;2768;53.540;10.224;2022-09-09T08:36:59;16.20;1.00
5492;DHT22;2768;53.540;10.224;2022-09-09T08:43:00;16.30;1.00
5492;DHT22;2768;53.540;10.224;2022-09-09T08:48:58;16.20;1.00
5492;DHT22;2768;53.540;10.224;2022-09-09T08:54:58;16.40;1.00
5492;DHT22;2768;53.540;10.224;2022-09-09T09:01:03;16.40;1.00
5492;DHT22;2768;53.540;10.224;2022-09-09T09:07:18;16.50;1.00
5492;DHT22;2768;53.540;10.224;2022-09-09T09:13:19;16.60;1.00
5492;DHT22;2768;53.540;10.224;2022-09-09T09:19:16;16.80;1.00
5492;DHT22;2768;53.540;10.224;2022-09-09T09:25:17;16.80;1.00
5492;DHT22;2768;53.540;10.224;2022-09-09T09:31:13;16.80;1.00
5492;DHT22;2768;53.540;10.224;2022-09-09T09:37:16;17.00;1.00
5492;DHT22;2768;53.540;10.224;2022-09-09T09:43:18;17.30;1.00
5492;DHT22;2768;53.540;10.224;2022-09-09T09:49:14;17.30;1.00
5492;DHT22;2768;53.540;10.224;2022-09-09T09:55:13;17.80;1.00
5492;DHT22;2768;53.540;10.224;2022-09-09T10:01:21;17.90;1.00
5492;DHT22;2768;53.540;10.224;2022-09-09T10:07:20;18.10;99.90
5492;DHT22;2768;53.540;10.224;2022-09-09T10:13:18;18.40;99.90
5492;DHT22;2768;53.540;10.224;2022-09-09T10:19:15;18.50;99.90
5492;DHT22;2768;53.540;10.224;2022-09-09T10:25:22;18.40;99.90
5492;DHT22;2768;53.540;10.224;2022-09-09T10:31:27;18.70;99.90
5492;DHT22;2768;53.540;10.224;2022-09-09T10:37:35;19.10;99.90
5492;DHT22;2768;53.540;10.224;2022-09-09T10:44:01;19.40;99.90
5492;DHT22;2768;53.540;10.224;2022-09-09T10:50:18;19.60;99.90
5492;DHT22;2768;53.540;10.224;2022-09-09T10:56:22;19.50;99.90
5492;DHT22;2768;53.540;10.224;2022-09-09T11:02:24;19.40;99.90
5492;DHT22;2768;53.540;10.224;2022-09-09T11:08:20;19.60;99.90
5492;DHT22;2768;53.540;10.224;2022-09-09T11:14:20;19.40;99.90
5492;DHT22;2768;53.540;10.224;2022-09-09T11:20:15;19.20;99.90
5492;DHT22;2768;53.540;10.224;2022-09-09T11:26:14;19.20;99.90
5492;DHT22;2768;53.540;10.224;2022-09-09T11:32:26;19.30;99.90
5492;DHT22;2768;53.540;10.224;2022-09-09T11:38:26;19.60;99.90
5492;DHT22;2768;53.540;10.224;2022-09-09T11:44:27;20.40;99.90
5492;DHT22;2768;53.540;10.224;2022-09-09T11:50:29;20.60;99.90
5492;DHT22;2768;53.540;10.224;2022-09-09T11:56:27;20.40;99.90
5492;DHT22;2768;53.540;10.224;2022-09-09T12:02:24;20.20;99.90
5492;DHT22;2768;53.540;10.224;2022-09-09T12:08:24;19.90;99.90
5492;DHT22;2768;53.540;10.224;2022-09-09T12:14:23;19.80;99.90
5492;DHT22;2768;53.540;10.224;2022-09-09T12:20:20;19.60;99.90
5492;DHT22;2768;53.540;10.224;2022-09-09T12:26:28;19.30;99.90
5492;DHT22;2768;53.540;10.224;2022-09-09T12:32:26;19.20;99.90
5492;DHT22;2768;53.540;10.224;2022-09-09T12:38:26;19.20;99.90
5492;DHT22;2768;53.540;10.224;2022-09-09T12:44:21;19.10;99.90
5492;DHT22;2768;53.540;10.224;2022-09-09T12:50:21;19.10;99.90
5492;DHT22;2768;53.540;10.224;2022-09-09T12:56:20;19.20;1.00
5492;DHT22;2768;53.540;10.224;2022-09-09T13:02:20;19.30;1.00
5492;DHT22;2768;53.540;10.224;2022-09-09T13:08:16;19.40;1.00
5492;DHT22;2768;53.540;10.224;2022-09-09T13:14:17;19.50;1.00
5492;DHT22;2768;53.540;10.224;2022-09-09T13:20:16;19.50;99.90
5492;DHT22;2768;53.540;10.224;2022-09-09T13:26:22;19.40;99.90
5492;DHT22;2768;53.540;10.224;2022-09-09T13:32:17;19.20;99.90
5492;DHT22;2768;53.540;10.224;2022-09-09T13:38:14;19.10;99.90
5492;DHT22;2768;53.540;10.224;2022-09-09T13:44:20;19.00;99.90
5492;DHT22;2768;53.540;10.224;2022-09-09T13:50:19;18.80;99.90
5492;DHT22;2768;53.540;10.224;2022-09-09T13:56:14;18.60;99.90
5492;DHT22;2768;53.540;10.224;2022-09-09T14:02:09;18.50;99.90
5492;DHT22;2768;53.540;10.224;2022-09-09T14:08:04;18.40;1.00
5492;DHT22;2768;53.540;10.224;2022-09-09T14:13:57;18.20;1.00
5492;DHT22;2768;53.540;10.224;2022-09-09T14:19:55;18.10;1.00
5492;DHT22;2768;53.540;10.224;2022-09-09T14:25:49;17.90;1.00
5492;DHT22;2768;53.540;10.224;2022-09-09T14:31:42;17.90;1.00
5492;DHT22;2768;53.540;10.224;2022-09-09T14:37:37;17.80;1.00
5492;DHT22;2768;53.540;10.224;2022-09-09T14:43:31;17.70;1.00
5492;DHT22;2768;53.540;10.224;2022-09-09T14:49:25;17.40;1.00
5492;DHT22;2768;53.540;10.224;2022-09-09T14:55:19;17.60;1.00
5492;DHT22;2768;53.540;10.224;2022-09-09T15:01:14;17.40;1.00
5492;DHT22;2768;53.540;10.224;2022-09-09T15:07:08;17.30;1.00
5492;DHT22;2768;53.540;10.224;2022-09-09T15:13:04;17.00;1.00
5492;DHT22;2768;53.540;10.224;2022-09-09T15:18:59;17.10;1.00
5492;DHT22;2768;53.540;10.224;2022-09-09T15:24:52;17.10;1.00
5492;DHT22;2768;53.540;10.224;2022-09-09T15:30:48;17.30;1.00
5492;DHT22;2768;53.540;10.224;2022-09-09T15:36:44;17.50;1.00
5492;DHT22;2768;53.540;10.224;2022-09-09T15:42:38;17.40;1.00
5492;DHT22;2768;53.540;10.224;2022-09-09T15:48:33;17.50;1.00
5492;DHT22;2768;53.540;10.224;2022-09-09T15:54:26;17.60;1.00
5492;DHT22;2768;53.540;10.224;2022-09-09T16:00:20;17.40;1.00
5492;DHT22;2768;53.540;10.224;2022-09-09T16:06:14;17.40;1.00
5492;DHT22;2768;53.540;10.224;2022-09-09T16:12:08;17.40;1.00
5492;DHT22;2768;53.540;10.224;2022-09-09T16:18:04;17.40;1.00
5492;DHT22;2768;53.540;10.224;2022-09-09T16:24:00;17.20;1.00
5492;DHT22;2768;53.540;10.224;2022-09-09T16:29:54;17.40;1.00
5492;DHT22;2768;53.540;10.224;2022-09-09T16:35:47;17.50;1.00
5492;DHT22;2768;53.540;10.224;2022-09-09T16:41:44;17.70;1.00
5492;DHT22;2768;53.540;10.224;2022-09-09T16:47:37;17.80;1.00
5492;DHT22;2768;53.540;10.224;2022-09-09T16:53:31;17.90;1.00
5492;DHT22;2768;53.540;10.224;2022-09-09T16:59:27;17.90;1.00
5492;DHT22;2768;53.540;10.224;2022-09-09T17:05:21;17.80;1.00
5492;DHT22;2768;53.540;10.224;2022-09-09T17:11:16;17.80;1.00
5492;DHT22;2768;53.540;10.224;2022-09-09T17:17:11;17.70;1.00
5492;DHT22;2768;53.540;10.224;2022-09-09T17:23:22;17.70;1.00
5492;DHT22;2768;53.540;10.224;2022-09-09T17:29:15;17.70;1.00
5492;DHT22;2768;53.540;10.224;2022-09-09T17:35:10;17.60;1.00
5492;DHT22;2768;53.540;10.224;2022-09-09T17:41:05;17.60;1.00
5492;DHT22;2768;53.540;10.224;2022-09-09T17:46:58;17.50;1.00
5492;DHT22;2768;53.540;10.224;2022-09-09T17:52:53;17.40;1.00
5492;DHT22;2768;53.540;10.224;2022-09-09T17:58:49;17.30;1.00
5492;DHT22;2768;53.540;10.224;2022-09-09T18:04:42;17.20;1.00
5492;DHT22;2768;53.540;10.224;2022-09-09T18:10:37;17.10;1.00
5492;DHT22;2768;53.540;10.224;2022-09-09T18:16:32;17.00;1.00
5492;DHT22;2768;53.540;10.224;2022-09-09T18:22:27;16.90;1.00
5492;DHT22;2768;53.540;10.224;2022-09-09T18:28:24;16.90;1.00
5492;DHT22;2768;53.540;10.224;2022-09-09T18:34:19;16.80;1.00
5492;DHT22;2768;53.540;10.224;2022-09-09T18:40:13;16.80;1.00
5492;DHT22;2768;53.540;10.224;2022-09-09T18:46:07;16.70;1.00
5492;DHT22;2768;53.540;10.224;2022-09-09T18:52:01;16.70;1.00
5492;DHT22;2768;53.540;10.224;2022-09-09T18:57:54;16.80;1.00
5492;DHT22;2768;53.540;10.224;2022-09-09T19:03:51;16.80;1.00
5492;DHT22;2768;53.540;10.224;2022-09-09T19:09:45;16.80;1.00
5492;DHT22;2768;53.540;10.224;2022-09-09T19:15:40;16.80;1.00
5492;DHT22;2768;53.540;10.224;2022-09-09T19:21:36;16.90;1.00
5492;DHT22;2768;53.540;10.224;2022-09-09T19:27:29;16.80;1.00
5492;DHT22;2768;53.540;10.224;2022-09-09T19:33:22;16.80;1.00
5492;DHT22;2768;53.540;10.224;2022-09-09T19:39:17;16.70;1.00
5492;DHT22;2768;53.540;10.224;2022-09-09T19:45:10;16.60;1.00
5492;DHT22;2768;53.540;10.224;2022-09-09T19:51:05;16.70;1.00
5492;DHT22;2768;53.540;10.224;2022-09-09T19:57:01;16.60;1.00
5492;DHT22;2768;53.540;10.224;2022-09-09T20:02:54;16.50;1.00
5492;DHT22;2768;53.540;10.224;2022-09-09T20:09:11;16.60;1.00
5492;DHT22;2768;53.540;10.224;2022-09-09T20:15:08;16.60;1.00
5492;DHT22;2768;53.540;10.224;2022-09-09T20:21:03;16.50;1.00
5492;DHT22;2768;53.540;10.224;2022-09-09T20:26:57;16.40;1.00
5492;DHT22;2768;53.540;10.224;2022-09-09T20:32:51;16.50;1.00
5492;DHT22;2768;53.540;10.224;2022-09-09T20:38:46;16.50;1.00
5492;DHT22;2768;53.540;10.224;2022-09-09T20:44:40;16.40;1.00
5492;DHT22;2768;53.540;10.224;2022-09-09T20:50:35;16.40;1.00
5492;DHT22;2768;53.540;10.224;2022-09-09T20:56:30;16.30;1.00
5492;DHT22;2768;53.540;10.224;2022-09-09T21:02:24;16.20;1.00
5492;DHT22;2768;53.540;10.224;2022-09-09T21:08:19;16.10;1.00
5492;DHT22;2768;53.540;10.224;2022-09-09T21:14:12;16.00;1.00
5492;DHT22;2768;53.540;10.224;2022-09-09T21:20:06;15.90;1.00
5492;DHT22;2768;53.540;10.224;2022-09-09T21:26:02;15.70;1.00
5492;DHT22;2768;53.540;10.224;2022-09-09T21:31:55;15.70;1.00
5492;DHT22;2768;53.540;10.224;2022-09-09T21:37:49;15.60;1.00
5492;DHT22;2768;53.540;10.224;2022-09-09T21:43:45;15.40;1.00
5492;DHT22;2768;53.540;10.224;2022-09-09T21:49:38;15.70;1.00
5492;DHT22;2768;53.540;10.224;2022-09-09T21:55:32;15.70;1.00
5492;DHT22;2768;53.540;10.224;2022-09-09T22:01:28;15.90;1.00
5492;DHT22;2768;53.540;10.224;2022-09-09T22:07:24;16.00;1.00
5492;DHT22;2768;53.540;10.224;2022-09-09T22:13:16;16.00;1.00
5492;DHT22;2768;53.540;10.224;2022-09-09T22:19:11;15.80;1.00
5492;DHT22;2768;53.540;10.224;2022-09-09T22:25:06;15.80;1.00
5492;DHT22;2768;53.540;10.224;2022-09-09T22:31:00;15.80;1.00
5492;DHT22;2768;53.540;10.224;2022-09-09T22:36:55;16.00;1.00
5492;DHT22;2768;53.540;10.224;2022-09-09T22:42:48;16.10;1.00
5492;DHT22;2768;53.540;10.224;2022-09-09T22:48:44;16.10;1.00
5492;DHT22;2768;53.540;10.224;2022-09-09T22:54:40;16.10;1.00
5492;DHT22;2768;53.540;10.224;2022-09-09T23:00:33;16.00;1.00
5492;DHT22;2768;53.540;10.224;2022-09-09T23:06:27;16.10;1.00
5492;DHT22;2768;53.540;10.224;2022-09-09T23:12:22;15.90;1.00
5492;DHT22;2768;53.540;10.224;2022-09-09T23:18:16;16.00;1.00
5492;DHT22;2768;53.540;10.224;2022-09-09T23:24:11;16.00;1.00
5492;DHT22;2768;53.540;10.224;2022-09-09T23:30:07;16.00;1.00
5492;DHT22;2768;53.540;10.224;2022-09-09T23:36:03;15.90;1.00
5492;DHT22;2768;53.540;10.224;2022-09-09T23:41:59;16.10;1.00
5492;DHT22;2768;53.540;10.224;2022-09-09T23:47:58;15.90;1.00
5492;DHT22;2768;53.540;10.224;2022-09-09T23:53:52;15.90;1.00
5492;DHT22;2768;53.540;10.224;2022-09-09T23:59:47;15.80;1.00
